createdAt,value
2022-11-05T00:03:46.624Z,6.7
2022-11-05T00:09:03.336Z,6.7
2022-11-05T00:14:40.379Z,6.6
2022-11-05T00:20:16.877Z,6.7
2022-11-05T00:25:47.569Z,6.7
2022-11-05T00:31:27.946Z,6.7
2022-11-05T00:36:57.178Z,6.6
2022-11-05T00:42:26.145Z,6.7
2022-11-05T00:47:48.307Z,6.7
2022-11-05T00:53:26.360Z,6.8
2022-11-05T00:58:55.502Z,6.8
2022-11-05T01:04:41.318Z,6.8
2022-11-05T01:10:18.881Z,6.7
2022-11-05T01:15:31.256Z,6.7
2022-11-05T01:21:24.102Z,6.7
2022-11-05T01:26:41.646Z,6.7
2022-11-05T01:32:14.649Z,6.8
2022-11-05T01:37:39.381Z,6.8
2022-11-05T01:43:21.509Z,6.7
2022-11-05T01:48:49.324Z,6.7
2022-11-05T01:54:32.242Z,6.7
2022-11-05T02:00:00.587Z,6.8
2022-11-05T02:05:26.060Z,6.8
2022-11-05T02:10:55.401Z,6.9
2022-11-05T02:16:28.205Z,6.9
2022-11-05T02:22:09.335Z,6.9
2022-11-05T02:27:32.077Z,6.9
2022-11-05T02:33:11.349Z,6.8
2022-11-05T02:38:47.735Z,6.9
2022-11-05T02:44:07.938Z,7
2022-11-05T02:49:43.547Z,7
2022-11-05T02:55:12.183Z,6.9
2022-11-05T03:00:49.916Z,6.9
2022-11-05T03:06:15.108Z,7
2022-11-05T03:12:02.612Z,7
2022-11-05T03:17:44.655Z,7
2022-11-05T03:23:01.773Z,7
2022-11-05T03:28:27.688Z,7
2022-11-05T03:34:12.766Z,6.9
2022-11-05T03:39:45.833Z,6.9
2022-11-05T03:45:02.235Z,6.9
2022-11-05T03:50:46.096Z,6.9
2022-11-05T03:56:15.654Z,7
2022-11-05T04:01:59.534Z,6.9
2022-11-05T04:07:33.385Z,6.9
2022-11-05T04:13:03.590Z,6.9
2022-11-05T04:18:42.193Z,7
2022-11-05T04:24:08.260Z,6.9
2022-11-05T04:29:41.789Z,6.9
2022-11-05T04:35:18.498Z,6.9
2022-11-05T04:40:42.553Z,6.8
2022-11-05T04:46:23.150Z,6.9
2022-11-05T04:51:42.337Z,6.9
2022-11-05T04:57:18.067Z,6.9
2022-11-05T05:02:55.079Z,7
2022-11-05T05:08:11.126Z,6.9
2022-11-05T05:13:56.909Z,6.9
2022-11-05T05:19:15.688Z,7
2022-11-05T05:24:56.871Z,7
2022-11-05T05:30:35.954Z,6.9
2022-11-05T05:35:55.850Z,7
2022-11-05T05:41:38.348Z,7
2022-11-05T05:46:55.547Z,7
2022-11-05T05:52:26.617Z,6.9
2022-11-05T05:58:18.428Z,6.9
2022-11-05T06:03:33.381Z,6.8
2022-11-05T06:09:10.551Z,6.9
2022-11-05T06:15:00.904Z,6.9
2022-11-05T06:20:33.830Z,6.9
2022-11-05T06:25:51.576Z,6.9
2022-11-05T06:31:24.667Z,7
2022-11-05T06:36:48.262Z,6.9
2022-11-05T06:42:47.489Z,6.9
2022-11-05T06:47:53.693Z,6.9
2022-11-05T06:53:30.189Z,7
2022-11-05T06:59:23.193Z,7
2022-11-05T07:04:43.933Z,7
2022-11-05T07:10:13.254Z,7.1
2022-11-05T07:15:46.295Z,7.2
2022-11-05T07:21:27.155Z,7.3
2022-11-05T07:26:55.807Z,7.3
2022-11-05T07:32:27.966Z,7.2
2022-11-05T07:37:50.142Z,7.2
2022-11-05T07:43:39.384Z,7.3
2022-11-05T07:48:50.949Z,7.4
2022-11-05T07:54:28.938Z,7.5
2022-11-05T08:00:03.893Z,7.5
2022-11-05T08:05:49.852Z,7.6
2022-11-05T08:11:21.985Z,7.7
2022-11-05T08:16:58.267Z,7.6
2022-11-05T08:22:19.406Z,7.6
2022-11-05T08:27:54.268Z,7.7
2022-11-05T08:33:36.288Z,8.4
2022-11-05T08:39:01.782Z,8.6
2022-11-05T08:44:43.000Z,8.7
2022-11-05T08:49:56.144Z,9.2
2022-11-05T08:55:37.135Z,9.3
2022-11-05T09:01:04.850Z,9.9
2022-11-05T09:06:38.123Z,9.5
2022-11-05T09:12:31.083Z,9.4
2022-11-05T09:17:48.740Z,9.5
2022-11-05T09:23:14.102Z,9.4
2022-11-05T09:29:09.212Z,9.4
2022-11-05T09:34:24.225Z,9.5
2022-11-05T09:40:04.351Z,9.6
2022-11-05T09:45:35.689Z,9.6
2022-11-05T09:51:24.215Z,9.9
2022-11-05T09:56:57.422Z,9.7
2022-11-05T10:02:25.208Z,9.7
2022-11-05T10:08:05.650Z,9.5
2022-11-05T10:13:42.469Z,9.4
2022-11-05T10:18:58.701Z,9.5
2022-11-05T10:24:28.751Z,9.5
2022-11-05T10:30:02.621Z,9.5
2022-11-05T10:36:02.090Z,9.7
2022-11-05T10:41:27.185Z,10.2
2022-11-05T10:47:08.176Z,9.9
2022-11-05T10:52:45.319Z,10.1
2022-11-05T10:57:53.930Z,10.1
2022-11-05T11:03:27.371Z,10
2022-11-05T11:09:06.053Z,9.5
2022-11-05T11:14:48.085Z,9.6
2022-11-05T11:20:14.869Z,9.5
2022-11-05T11:25:48.546Z,9.7
2022-11-05T11:31:26.187Z,10.1
2022-11-05T11:37:06.746Z,9.9
2022-11-05T11:42:25.696Z,9.8
2022-11-05T11:48:12.669Z,9.9
2022-11-05T11:53:52.414Z,10
2022-11-05T11:59:10.138Z,10.1
2022-11-05T12:04:58.432Z,10.8
2022-11-05T12:10:16.919Z,10.7
2022-11-05T12:15:53.246Z,10.7
2022-11-05T12:21:52.418Z,10.5
2022-11-05T12:26:59.478Z,10.4
2022-11-05T12:32:53.842Z,10.1
2022-11-05T12:38:12.897Z,10
2022-11-05T12:43:45.372Z,10.1
2022-11-05T12:49:34.345Z,10.7
2022-11-05T12:54:47.180Z,10.3
2022-11-05T13:00:17.742Z,10.2
2022-11-05T13:06:19.579Z,10.1
2022-11-05T13:11:48.147Z,10.2
2022-11-05T13:17:13.726Z,10.4
2022-11-05T13:22:49.274Z,10.5
2022-11-05T13:28:25.616Z,10.3
2022-11-05T13:33:55.007Z,10.4
2022-11-05T13:39:37.640Z,10.2
2022-11-05T13:45:13.758Z,10.4
2022-11-05T13:50:31.620Z,10.3
2022-11-05T13:56:00.736Z,10.2
2022-11-05T14:01:38.321Z,10.2
2022-11-05T14:07:21.814Z,10.2
2022-11-05T14:12:53.411Z,10.2
2022-11-05T14:18:38.621Z,10.3
2022-11-05T14:24:04.621Z,10.2
2022-11-05T14:29:47.576Z,10.2
2022-11-05T14:35:13.256Z,10.1
2022-11-05T14:40:54.948Z,10
2022-11-05T14:46:23.329Z,10
2022-11-05T14:52:05.961Z,10
2022-11-05T14:57:17.049Z,10
2022-11-05T15:02:45.459Z,9.9
2022-11-05T15:08:22.529Z,9.9
2022-11-05T15:19:34.986Z,9.7
2022-11-05T15:25:21.629Z,9.3
2022-11-05T15:30:31.720Z,9
2022-11-05T15:36:16.805Z,8.8
2022-11-05T15:42:02.889Z,8.6
2022-11-05T15:47:20.757Z,8.8
2022-11-05T15:52:45.832Z,8.7
2022-11-05T15:58:31.211Z,7.9
2022-11-05T16:04:00.304Z,7.9
2022-11-05T16:09:34.300Z,7.5
2022-11-05T16:15:14.061Z,7.3
2022-11-05T16:20:44.851Z,7.3
2022-11-05T16:26:35.086Z,7.1
2022-11-05T16:31:57.571Z,7.3
2022-11-05T16:37:18.669Z,7.9
2022-11-05T16:43:03.911Z,7.9
2022-11-05T16:48:13.605Z,7.8
2022-11-05T16:53:47.266Z,7.6
2022-11-05T16:59:21.468Z,7.6
2022-11-05T17:04:50.949Z,7.6
2022-11-05T17:10:34.539Z,7.4
2022-11-05T17:16:05.224Z,7.3
2022-11-05T17:21:34.673Z,7.3
2022-11-05T17:27:24.582Z,7.3
2022-11-05T17:32:56.539Z,7.2
2022-11-05T17:38:15.797Z,7.2
2022-11-05T17:43:56.716Z,7
2022-11-05T17:49:21.750Z,6.9
2022-11-05T17:55:13.365Z,7.2
2022-11-05T18:00:48.434Z,7
2022-11-05T18:06:09.487Z,7.4
2022-11-05T18:11:35.094Z,7.5
2022-11-05T18:17:25.265Z,7.2
2022-11-05T18:22:53.502Z,7.4
2022-11-05T18:28:24.459Z,7.3
2022-11-05T18:33:49.445Z,7
2022-11-05T18:39:14.624Z,6.8
2022-11-05T18:44:54.254Z,6.7
2022-11-05T18:50:18.024Z,6.8
2022-11-05T18:55:55.229Z,7.1
2022-11-05T19:01:30.699Z,7
2022-11-05T19:07:18.848Z,6.8
2022-11-05T19:12:40.047Z,6.6
2022-11-05T19:17:56.275Z,6.5
2022-11-05T19:23:29.814Z,6.3
2022-11-05T19:29:13.156Z,6.2
2022-11-05T19:34:32.123Z,6
2022-11-05T19:40:06.249Z,6
2022-11-05T19:45:44.877Z,5.6
2022-11-05T19:51:20.011Z,5.7
2022-11-05T19:56:49.352Z,5.3
2022-11-05T20:02:16.524Z,5.5
2022-11-05T20:07:52.702Z,5.2
2022-11-05T20:13:20.559Z,5.7
2022-11-05T20:18:58.631Z,5.8
2022-11-05T20:24:48.404Z,5.8
2022-11-05T20:30:12.574Z,5.5
2022-11-05T20:35:29.943Z,5.5
2022-11-05T20:41:24.381Z,5.3
2022-11-05T20:46:47.161Z,5.1
2022-11-05T20:52:26.017Z,5.4
2022-11-05T20:57:48.000Z,5.2
2022-11-05T21:03:15.418Z,5.2
2022-11-05T21:08:54.637Z,5.1
2022-11-05T21:14:41.496Z,4.8
2022-11-05T21:19:54.541Z,4.9
2022-11-05T21:25:34.304Z,4.6
2022-11-05T21:31:01.254Z,5
2022-11-05T21:36:49.341Z,4.6
2022-11-05T21:42:15.241Z,4.6
2022-11-05T21:47:49.912Z,4.8
2022-11-05T21:53:31.330Z,5.1
2022-11-05T21:58:41.784Z,4.9
2022-11-05T22:04:15.809Z,4.9
2022-11-05T22:10:13.274Z,5
2022-11-05T22:15:30.567Z,5
2022-11-05T22:21:07.660Z,4.5
2022-11-05T22:26:49.685Z,4.6
2022-11-05T22:32:15.154Z,4.5
2022-11-05T22:37:37.186Z,4.7
2022-11-05T22:43:06.344Z,4.9
2022-11-05T22:48:53.002Z,4.8
2022-11-05T22:54:17.354Z,4.5
2022-11-05T22:59:55.406Z,4.3
2022-11-05T23:05:33.730Z,4.3
2022-11-05T23:10:45.887Z,4.5
2022-11-05T23:16:45.629Z,4.5
2022-11-05T23:22:10.285Z,3.9
2022-11-05T23:27:44.915Z,3.7
2022-11-05T23:33:03.573Z,3.6
2022-11-05T23:38:44.836Z,3.3
2022-11-05T23:44:03.374Z,3.7
2022-11-05T23:49:54.967Z,4
2022-11-05T23:55:06.296Z,3.9
